CheckWX is a tool to help pilots better visualize weather data.  It is not intended as a substitute for an official pre-flight weather briefing.

21:52:07 UTC

GOTT METAR
Tambacounda Airport
Tambacounda, Senegal
Current

52 mins ago

GOTT 232100Z 02006KT CAVOK 30/03 Q1010
Observed
Feb-23 @ 21:00 UTC
Wind
  • 020° at 6 KTS
Visibility
10,000+ meters
Flight Rules
VFR
Cloud Levels
  • Clear skies
Temperature
30°C / 86°F
Dewpoint
C / 37°F
Humidity
18%
Altimeter
29.82" Hg
Pressure
1009.92 hPa
Previous

2 hours ago

GOTT 232000Z 01004KT CAVOK 31/04 Q1010
Observed
Feb-23 @ 20:00 UTC
Wind
  • 010° at 4 KTS
Visibility
10,000+ meters
Flight Rules
VFR
Cloud Levels
  • Clear skies
Temperature
31°C / 88°F
Dewpoint
C / 39°F
Humidity
18%
Altimeter
29.82" Hg
Pressure
1009.92 hPa
Previous

3 hours ago

GOTT 231900Z 03006KT CAVOK 34/06 Q1009
Observed
Feb-23 @ 19:00 UTC
Wind
  • 030° at 6 KTS
Visibility
10,000+ meters
Flight Rules
VFR
Cloud Levels
  • Clear skies
Temperature
34°C / 93°F
Dewpoint
C / 43°F
Humidity
17%
Altimeter
29.79" Hg
Pressure
1008.92 hPa